sensor_id;sensor_type;location;lat;lon;timestamp;P1;durP1;ratioP1;P2;durP2;ratioP2
6775;SDS011;3425;51.376;5.222;2023-12-07T00:00:37;21.33;;;10.43;;
6775;SDS011;3425;51.376;5.222;2023-12-07T00:03:04;11.00;;;10.20;;
6775;SDS011;3425;51.376;5.222;2023-12-07T00:05:34;9.75;;;9.32;;
6775;SDS011;3425;51.376;5.222;2023-12-07T00:08:01;11.27;;;10.63;;
6775;SDS011;3425;51.376;5.222;2023-12-07T00:10:29;10.00;;;9.50;;
6775;SDS011;3425;51.376;5.222;2023-12-07T00:12:56;10.25;;;9.65;;
6775;SDS011;3425;51.376;5.222;2023-12-07T00:15:23;11.25;;;10.63;;
6775;SDS011;3425;51.376;5.222;2023-12-07T00:17:51;10.32;;;9.70;;
6775;SDS011;3425;51.376;5.222;2023-12-07T00:20:18;11.82;;;10.75;;
6775;SDS011;3425;51.376;5.222;2023-12-07T00:22:47;9.43;;;8.93;;
6775;SDS011;3425;51.376;5.222;2023-12-07T00:25:14;8.63;;;8.23;;
6775;SDS011;3425;51.376;5.222;2023-12-07T00:27:42;8.48;;;8.07;;
6775;SDS011;3425;51.376;5.222;2023-12-07T00:30:12;10.63;;;9.98;;
6775;SDS011;3425;51.376;5.222;2023-12-07T00:32:40;10.70;;;10.13;;
6775;SDS011;3425;51.376;5.222;2023-12-07T00:35:12;10.38;;;9.88;;
6775;SDS011;3425;51.376;5.222;2023-12-07T00:37:41;10.27;;;9.77;;
6775;SDS011;3425;51.376;5.222;2023-12-07T00:40:08;10.05;;;9.55;;
6775;SDS011;3425;51.376;5.222;2023-12-07T00:42:35;10.02;;;9.52;;
6775;SDS011;3425;51.376;5.222;2023-12-07T00:45:02;9.50;;;9.10;;
6775;SDS011;3425;51.376;5.222;2023-12-07T00:47:30;9.25;;;8.85;;
6775;SDS011;3425;51.376;5.222;2023-12-07T00:49:57;10.52;;;9.93;;
6775;SDS011;3425;51.376;5.222;2023-12-07T00:52:24;14.93;;;10.20;;
6775;SDS011;3425;51.376;5.222;2023-12-07T00:54:53;10.90;;;10.40;;
6775;SDS011;3425;51.376;5.222;2023-12-07T00:57:35;11.93;;;11.18;;
6775;SDS011;3425;51.376;5.222;2023-12-07T01:00:03;11.25;;;10.65;;
6775;SDS011;3425;51.376;5.222;2023-12-07T01:02:30;10.95;;;10.45;;
6775;SDS011;3425;51.376;5.222;2023-12-07T01:04:57;11.65;;;11.05;;
6775;SDS011;3425;51.376;5.222;2023-12-07T01:07:27;12.15;;;11.45;;
6775;SDS011;3425;51.376;5.222;2023-12-07T01:09:54;11.20;;;10.70;;
6775;SDS011;3425;51.376;5.222;2023-12-07T01:12:21;11.55;;;10.95;;
6775;SDS011;3425;51.376;5.222;2023-12-07T01:14:49;12.15;;;11.45;;
6775;SDS011;3425;51.376;5.222;2023-12-07T01:17:16;12.60;;;11.70;;
6775;SDS011;3425;51.376;5.222;2023-12-07T01:19:44;11.70;;;11.10;;
6775;SDS011;3425;51.376;5.222;2023-12-07T01:22:11;12.93;;;11.73;;
6775;SDS011;3425;51.376;5.222;2023-12-07T01:24:38;12.73;;;11.90;;
6775;SDS011;3425;51.376;5.222;2023-12-07T01:27:05;10.85;;;10.35;;
6775;SDS011;3425;51.376;5.222;2023-12-07T01:29:33;11.32;;;10.73;;
6775;SDS011;3425;51.376;5.222;2023-12-07T01:32:01;13.25;;;12.35;;
6775;SDS011;3425;51.376;5.222;2023-12-07T01:34:28;12.73;;;11.77;;
6775;SDS011;3425;51.376;5.222;2023-12-07T01:36:55;11.07;;;10.57;;
6775;SDS011;3425;51.376;5.222;2023-12-07T01:39:23;11.90;;;11.30;;
6775;SDS011;3425;51.376;5.222;2023-12-07T01:41:51;12.88;;;11.98;;
6775;SDS011;3425;51.376;5.222;2023-12-07T01:44:18;11.98;;;11.38;;
6775;SDS011;3425;51.376;5.222;2023-12-07T01:46:46;11.27;;;10.68;;
6775;SDS011;3425;51.376;5.222;2023-12-07T01:49:15;11.80;;;11.10;;
6775;SDS011;3425;51.376;5.222;2023-12-07T01:51:43;10.98;;;10.45;;
6775;SDS011;3425;51.376;5.222;2023-12-07T01:54:10;11.20;;;10.70;;
6775;SDS011;3425;51.376;5.222;2023-12-07T01:56:38;11.20;;;10.70;;
6775;SDS011;3425;51.376;5.222;2023-12-07T01:59:05;10.93;;;10.43;;
6775;SDS011;3425;51.376;5.222;2023-12-07T02:01:33;12.85;;;11.52;;
6775;SDS011;3425;51.376;5.222;2023-12-07T02:04:00;10.98;;;10.43;;
6775;SDS011;3425;51.376;5.222;2023-12-07T02:06:27;11.07;;;10.57;;
6775;SDS011;3425;51.376;5.222;2023-12-07T02:08:54;11.82;;;11.23;;
6775;SDS011;3425;51.376;5.222;2023-12-07T02:11:22;12.65;;;11.98;;
6775;SDS011;3425;51.376;5.222;2023-12-07T02:13:49;11.23;;;10.63;;
6775;SDS011;3425;51.376;5.222;2023-12-07T02:16:23;11.32;;;10.73;;
6775;SDS011;3425;51.376;5.222;2023-12-07T02:18:56;11.20;;;10.68;;
6775;SDS011;3425;51.376;5.222;2023-12-07T02:21:26;11.20;;;10.70;;
6775;SDS011;3425;51.376;5.222;2023-12-07T02:23:57;12.13;;;11.52;;
6775;SDS011;3425;51.376;5.222;2023-12-07T02:26:32;11.40;;;10.80;;
6775;SDS011;3425;51.376;5.222;2023-12-07T02:28:59;11.40;;;10.80;;
6775;SDS011;3425;51.376;5.222;2023-12-07T02:31:27;12.95;;;12.15;;
6775;SDS011;3425;51.376;5.222;2023-12-07T02:33:54;11.75;;;11.15;;
6775;SDS011;3425;51.376;5.222;2023-12-07T02:36:22;12.57;;;11.98;;
6775;SDS011;3425;51.376;5.222;2023-12-07T02:38:52;12.10;;;11.50;;
6775;SDS011;3425;51.376;5.222;2023-12-07T02:41:21;11.80;;;11.20;;
6775;SDS011;3425;51.376;5.222;2023-12-07T02:43:49;12.80;;;12.10;;
6775;SDS011;3425;51.376;5.222;2023-12-07T02:46:17;11.48;;;10.88;;
6775;SDS011;3425;51.376;5.222;2023-12-07T02:48:44;11.98;;;11.38;;
6775;SDS011;3425;51.376;5.222;2023-12-07T02:51:12;12.18;;;11.57;;
6775;SDS011;3425;51.376;5.222;2023-12-07T02:53:39;11.93;;;11.32;;
6775;SDS011;3425;51.376;5.222;2023-12-07T02:56:09;12.00;;;11.32;;
6775;SDS011;3425;51.376;5.222;2023-12-07T02:58:36;11.73;;;11.13;;
6775;SDS011;3425;51.376;5.222;2023-12-07T03:01:05;11.63;;;11.05;;
6775;SDS011;3425;51.376;5.222;2023-12-07T03:03:32;11.55;;;10.95;;
6775;SDS011;3425;51.376;5.222;2023-12-07T03:05:59;13.63;;;12.68;;
6775;SDS011;3425;51.376;5.222;2023-12-07T03:08:27;12.05;;;11.45;;
6775;SDS011;3425;51.376;5.222;2023-12-07T03:10:54;11.68;;;11.07;;
6775;SDS011;3425;51.376;5.222;2023-12-07T03:13:22;11.52;;;10.93;;
6775;SDS011;3425;51.376;5.222;2023-12-07T03:15:49;11.88;;;11.27;;
6775;SDS011;3425;51.376;5.222;2023-12-07T03:18:17;11.65;;;11.05;;
6775;SDS011;3425;51.376;5.222;2023-12-07T03:20:44;11.85;;;11.25;;
6775;SDS011;3425;51.376;5.222;2023-12-07T03:23:12;11.60;;;11.00;;
6775;SDS011;3425;51.376;5.222;2023-12-07T03:25:39;11.20;;;10.70;;
6775;SDS011;3425;51.376;5.222;2023-12-07T03:28:06;11.73;;;11.13;;
6775;SDS011;3425;51.376;5.222;2023-12-07T03:30:33;11.75;;;11.05;;
6775;SDS011;3425;51.376;5.222;2023-12-07T03:33:01;12.75;;;12.05;;
6775;SDS011;3425;51.376;5.222;2023-12-07T03:35:28;11.98;;;11.38;;
6775;SDS011;3425;51.376;5.222;2023-12-07T03:37:55;12.27;;;11.63;;
6775;SDS011;3425;51.376;5.222;2023-12-07T03:40:22;12.57;;;11.88;;
6775;SDS011;3425;51.376;5.222;2023-12-07T03:42:50;12.20;;;11.60;;
6775;SDS011;3425;51.376;5.222;2023-12-07T03:45:22;12.30;;;11.70;;
6775;SDS011;3425;51.376;5.222;2023-12-07T03:47:50;11.65;;;11.05;;
6775;SDS011;3425;51.376;5.222;2023-12-07T03:50:17;13.73;;;12.60;;
6775;SDS011;3425;51.376;5.222;2023-12-07T03:52:44;12.75;;;12.05;;
6775;SDS011;3425;51.376;5.222;2023-12-07T03:55:11;14.27;;;13.25;;
6775;SDS011;3425;51.376;5.222;2023-12-07T03:57:39;13.35;;;12.55;;
6775;SDS011;3425;51.376;5.222;2023-12-07T04:00:07;12.63;;;12.02;;
6775;SDS011;3425;51.376;5.222;2023-12-07T04:02:34;12.30;;;11.60;;
6775;SDS011;3425;51.376;5.222;2023-12-07T04:05:02;12.60;;;12.00;;
6775;SDS011;3425;51.376;5.222;2023-12-07T04:07:29;13.27;;;12.48;;
6775;SDS011;3425;51.376;5.222;2023-12-07T04:09:56;11.93;;;11.32;;
6775;SDS011;3425;51.376;5.222;2023-12-07T04:12:24;12.43;;;11.82;;
6775;SDS011;3425;51.376;5.222;2023-12-07T04:14:52;12.30;;;11.70;;
6775;SDS011;3425;51.376;5.222;2023-12-07T04:17:19;14.02;;;13.32;;
6775;SDS011;3425;51.376;5.222;2023-12-07T04:19:47;12.98;;;12.27;;
6775;SDS011;3425;51.376;5.222;2023-12-07T04:22:14;13.10;;;12.40;;
6775;SDS011;3425;51.376;5.222;2023-12-07T04:24:42;12.38;;;11.75;;
6775;SDS011;3425;51.376;5.222;2023-12-07T04:27:10;12.10;;;11.50;;
6775;SDS011;3425;51.376;5.222;2023-12-07T04:29:37;11.95;;;11.35;;
6775;SDS011;3425;51.376;5.222;2023-12-07T04:32:06;13.00;;;12.35;;
6775;SDS011;3425;51.376;5.222;2023-12-07T04:34:33;13.20;;;12.40;;
6775;SDS011;3425;51.376;5.222;2023-12-07T04:37:01;13.70;;;12.90;;
6775;SDS011;3425;51.376;5.222;2023-12-07T04:39:29;14.60;;;13.48;;
6775;SDS011;3425;51.376;5.222;2023-12-07T04:41:56;12.68;;;11.98;;
6775;SDS011;3425;51.376;5.222;2023-12-07T04:44:23;13.25;;;12.55;;
6775;SDS011;3425;51.376;5.222;2023-12-07T04:46:54;14.48;;;13.68;;
6775;SDS011;3425;51.376;5.222;2023-12-07T04:49:22;19.83;;;13.30;;
6775;SDS011;3425;51.376;5.222;2023-12-07T04:51:49;14.07;;;13.23;;
6775;SDS011;3425;51.376;5.222;2023-12-07T04:54:16;14.63;;;13.63;;
6775;SDS011;3425;51.376;5.222;2023-12-07T04:56:45;13.55;;;12.82;;
6775;SDS011;3425;51.376;5.222;2023-12-07T04:59:13;14.80;;;13.93;;
6775;SDS011;3425;51.376;5.222;2023-12-07T05:01:40;14.98;;;13.77;;
6775;SDS011;3425;51.376;5.222;2023-12-07T05:04:07;15.25;;;14.23;;
6775;SDS011;3425;51.376;5.222;2023-12-07T05:06:35;14.32;;;13.52;;
6775;SDS011;3425;51.376;5.222;2023-12-07T05:09:02;15.95;;;14.85;;
6775;SDS011;3425;51.376;5.222;2023-12-07T05:11:30;13.18;;;12.48;;
6775;SDS011;3425;51.376;5.222;2023-12-07T05:13:57;13.70;;;13.00;;
6775;SDS011;3425;51.376;5.222;2023-12-07T05:16:24;15.07;;;14.27;;
6775;SDS011;3425;51.376;5.222;2023-12-07T05:18:51;14.93;;;14.13;;
6775;SDS011;3425;51.376;5.222;2023-12-07T05:21:19;15.07;;;14.20;;
6775;SDS011;3425;51.376;5.222;2023-12-07T05:23:46;14.90;;;14.07;;
6775;SDS011;3425;51.376;5.222;2023-12-07T05:26:14;13.95;;;13.25;;
6775;SDS011;3425;51.376;5.222;2023-12-07T05:28:41;14.45;;;13.65;;
6775;SDS011;3425;51.376;5.222;2023-12-07T05:31:15;14.45;;;13.65;;
6775;SDS011;3425;51.376;5.222;2023-12-07T05:33:43;15.60;;;14.70;;
6775;SDS011;3425;51.376;5.222;2023-12-07T05:36:10;14.73;;;13.93;;
6775;SDS011;3425;51.376;5.222;2023-12-07T05:38:38;15.43;;;14.27;;
6775;SDS011;3425;51.376;5.222;2023-12-07T05:41:05;14.80;;;14.00;;
6775;SDS011;3425;51.376;5.222;2023-12-07T05:43:33;16.83;;;15.30;;
6775;SDS011;3425;51.376;5.222;2023-12-07T05:46:01;15.73;;;14.82;;
6775;SDS011;3425;51.376;5.222;2023-12-07T05:48:28;14.65;;;13.85;;
6775;SDS011;3425;51.376;5.222;2023-12-07T05:50:55;15.43;;;14.63;;
6775;SDS011;3425;51.376;5.222;2023-12-07T05:53:22;15.48;;;14.65;;
6775;SDS011;3425;51.376;5.222;2023-12-07T05:55:50;16.15;;;15.13;;
6775;SDS011;3425;51.376;5.222;2023-12-07T05:58:17;15.85;;;15.00;;
6775;SDS011;3425;51.376;5.222;2023-12-07T06:00:45;15.20;;;14.10;;
6775;SDS011;3425;51.376;5.222;2023-12-07T06:03:13;15.65;;;14.65;;
6775;SDS011;3425;51.376;5.222;2023-12-07T06:05:41;15.82;;;14.93;;
6775;SDS011;3425;51.376;5.222;2023-12-07T06:08:11;16.67;;;15.40;;
6775;SDS011;3425;51.376;5.222;2023-12-07T06:10:38;15.15;;;14.35;;
6775;SDS011;3425;51.376;5.222;2023-12-07T06:13:06;15.30;;;14.40;;
6775;SDS011;3425;51.376;5.222;2023-12-07T06:15:34;14.55;;;13.75;;
6775;SDS011;3425;51.376;5.222;2023-12-07T06:18:01;15.68;;;14.77;;
6775;SDS011;3425;51.376;5.222;2023-12-07T06:20:29;15.10;;;14.30;;
6775;SDS011;3425;51.376;5.222;2023-12-07T06:22:56;15.65;;;14.80;;
6775;SDS011;3425;51.376;5.222;2023-12-07T06:25:24;15.95;;;15.05;;
6775;SDS011;3425;51.376;5.222;2023-12-07T06:27:51;14.93;;;14.13;;
6775;SDS011;3425;51.376;5.222;2023-12-07T06:30:19;15.88;;;14.98;;
6775;SDS011;3425;51.376;5.222;2023-12-07T06:32:46;15.43;;;14.52;;
6775;SDS011;3425;51.376;5.222;2023-12-07T06:35:14;15.60;;;14.70;;
6775;SDS011;3425;51.376;5.222;2023-12-07T06:37:42;15.43;;;14.55;;
6775;SDS011;3425;51.376;5.222;2023-12-07T06:40:10;15.57;;;14.68;;
6775;SDS011;3425;51.376;5.222;2023-12-07T06:42:37;16.05;;;15.00;;
6775;SDS011;3425;51.376;5.222;2023-12-07T06:45:06;15.40;;;14.50;;
6775;SDS011;3425;51.376;5.222;2023-12-07T06:47:37;15.30;;;14.43;;
6775;SDS011;3425;51.376;5.222;2023-12-07T06:50:05;16.42;;;15.43;;
6775;SDS011;3425;51.376;5.222;2023-12-07T06:52:39;17.77;;;16.58;;
6775;SDS011;3425;51.376;5.222;2023-12-07T06:55:07;15.93;;;15.02;;
6775;SDS011;3425;51.376;5.222;2023-12-07T06:57:36;15.50;;;14.60;;
6775;SDS011;3425;51.376;5.222;2023-12-07T07:00:04;14.57;;;13.77;;
6775;SDS011;3425;51.376;5.222;2023-12-07T07:02:39;15.48;;;14.57;;
6775;SDS011;3425;51.376;5.222;2023-12-07T07:05:07;16.02;;;15.05;;
6775;SDS011;3425;51.376;5.222;2023-12-07T07:07:38;15.30;;;14.45;;
6775;SDS011;3425;51.376;5.222;2023-12-07T07:10:06;16.17;;;15.18;;
6775;SDS011;3425;51.376;5.222;2023-12-07T07:12:36;16.48;;;15.05;;
6775;SDS011;3425;51.376;5.222;2023-12-07T07:15:03;15.10;;;14.30;;
6775;SDS011;3425;51.376;5.222;2023-12-07T07:17:31;15.20;;;14.40;;
6775;SDS011;3425;51.376;5.222;2023-12-07T07:19:59;15.38;;;14.52;;
6775;SDS011;3425;51.376;5.222;2023-12-07T07:22:26;14.15;;;13.40;;
6775;SDS011;3425;51.376;5.222;2023-12-07T07:24:54;14.32;;;13.52;;
6775;SDS011;3425;51.376;5.222;2023-12-07T07:27:22;16.10;;;15.05;;
6775;SDS011;3425;51.376;5.222;2023-12-07T07:29:50;15.02;;;14.23;;
6775;SDS011;3425;51.376;5.222;2023-12-07T07:32:18;15.23;;;14.43;;
6775;SDS011;3425;51.376;5.222;2023-12-07T07:34:45;16.98;;;15.50;;
6775;SDS011;3425;51.376;5.222;2023-12-07T07:37:12;16.58;;;15.48;;
6775;SDS011;3425;51.376;5.222;2023-12-07T07:39:40;14.57;;;13.77;;
6775;SDS011;3425;51.376;5.222;2023-12-07T07:42:07;14.77;;;13.98;;
6775;SDS011;3425;51.376;5.222;2023-12-07T07:44:34;14.70;;;13.90;;
6775;SDS011;3425;51.376;5.222;2023-12-07T07:47:01;14.68;;;13.88;;
6775;SDS011;3425;51.376;5.222;2023-12-07T07:49:29;14.60;;;13.80;;
6775;SDS011;3425;51.376;5.222;2023-12-07T07:51:56;14.95;;;14.15;;
6775;SDS011;3425;51.376;5.222;2023-12-07T07:54:24;16.23;;;15.32;;
6775;SDS011;3425;51.376;5.222;2023-12-07T07:56:51;17.92;;;16.83;;
6775;SDS011;3425;51.376;5.222;2023-12-07T07:59:18;14.80;;;14.00;;
6775;SDS011;3425;51.376;5.222;2023-12-07T08:01:46;17.42;;;16.25;;
6775;SDS011;3425;51.376;5.222;2023-12-07T08:04:13;16.25;;;15.35;;
6775;SDS011;3425;51.376;5.222;2023-12-07T08:06:41;16.73;;;15.65;;
6775;SDS011;3425;51.376;5.222;2023-12-07T08:09:08;15.65;;;14.75;;
6775;SDS011;3425;51.376;5.222;2023-12-07T08:11:36;15.52;;;14.73;;
6775;SDS011;3425;51.376;5.222;2023-12-07T08:14:03;16.77;;;15.77;;
6775;SDS011;3425;51.376;5.222;2023-12-07T08:16:30;16.27;;;15.32;;
6775;SDS011;3425;51.376;5.222;2023-12-07T08:18:57;16.70;;;15.70;;
6775;SDS011;3425;51.376;5.222;2023-12-07T08:21:25;16.63;;;15.63;;
6775;SDS011;3425;51.376;5.222;2023-12-07T08:23:56;18.08;;;16.95;;
6775;SDS011;3425;51.376;5.222;2023-12-07T08:26:23;16.73;;;15.80;;
6775;SDS011;3425;51.376;5.222;2023-12-07T08:28:51;16.30;;;15.40;;
6775;SDS011;3425;51.376;5.222;2023-12-07T08:31:20;15.75;;;14.85;;
6775;SDS011;3425;51.376;5.222;2023-12-07T08:33:51;17.23;;;16.23;;
6775;SDS011;3425;51.376;5.222;2023-12-07T08:36:18;15.50;;;14.60;;
6775;SDS011;3425;51.376;5.222;2023-12-07T08:38:46;17.98;;;16.63;;
6775;SDS011;3425;51.376;5.222;2023-12-07T08:41:13;16.75;;;15.40;;
6775;SDS011;3425;51.376;5.222;2023-12-07T08:43:40;15.90;;;15.00;;
6775;SDS011;3425;51.376;5.222;2023-12-07T08:46:08;16.35;;;15.45;;
6775;SDS011;3425;51.376;5.222;2023-12-07T08:48:36;17.52;;;16.20;;
6775;SDS011;3425;51.376;5.222;2023-12-07T08:51:08;15.25;;;14.38;;
6775;SDS011;3425;51.376;5.222;2023-12-07T08:53:36;16.15;;;15.25;;
6775;SDS011;3425;51.376;5.222;2023-12-07T08:56:03;16.52;;;15.57;;
6775;SDS011;3425;51.376;5.222;2023-12-07T08:58:31;16.65;;;15.65;;
6775;SDS011;3425;51.376;5.222;2023-12-07T09:00:58;16.17;;;15.27;;
6775;SDS011;3425;51.376;5.222;2023-12-07T09:03:26;14.95;;;14.15;;
6775;SDS011;3425;51.376;5.222;2023-12-07T09:05:59;16.58;;;15.38;;
6775;SDS011;3425;51.376;5.222;2023-12-07T09:08:26;15.75;;;14.85;;
6775;SDS011;3425;51.376;5.222;2023-12-07T09:10:54;16.75;;;15.70;;
6775;SDS011;3425;51.376;5.222;2023-12-07T09:13:21;15.00;;;14.20;;
6775;SDS011;3425;51.376;5.222;2023-12-07T09:15:48;15.93;;;14.98;;
6775;SDS011;3425;51.376;5.222;2023-12-07T09:18:16;15.85;;;14.93;;
6775;SDS011;3425;51.376;5.222;2023-12-07T09:20:43;16.70;;;15.75;;
6775;SDS011;3425;51.376;5.222;2023-12-07T09:23:14;17.15;;;16.15;;
6775;SDS011;3425;51.376;5.222;2023-12-07T09:25:41;15.60;;;14.70;;
6775;SDS011;3425;51.376;5.222;2023-12-07T09:28:10;15.95;;;14.90;;
6775;SDS011;3425;51.376;5.222;2023-12-07T09:30:38;16.10;;;15.10;;
6775;SDS011;3425;51.376;5.222;2023-12-07T09:33:05;16.92;;;15.82;;
6775;SDS011;3425;51.376;5.222;2023-12-07T09:35:33;16.90;;;15.80;;
6775;SDS011;3425;51.376;5.222;2023-12-07T09:38:01;16.80;;;15.80;;
6775;SDS011;3425;51.376;5.222;2023-12-07T09:40:30;15.95;;;14.95;;
6775;SDS011;3425;51.376;5.222;2023-12-07T09:42:58;14.90;;;14.10;;
6775;SDS011;3425;51.376;5.222;2023-12-07T09:45:25;15.13;;;14.32;;
6775;SDS011;3425;51.376;5.222;2023-12-07T09:47:54;15.50;;;14.60;;
6775;SDS011;3425;51.376;5.222;2023-12-07T09:50:23;15.07;;;14.27;;
6775;SDS011;3425;51.376;5.222;2023-12-07T09:52:53;16.80;;;15.70;;
6775;SDS011;3425;51.376;5.222;2023-12-07T09:55:33;16.15;;;15.15;;
6775;SDS011;3425;51.376;5.222;2023-12-07T09:58:05;15.57;;;14.73;;
6775;SDS011;3425;51.376;5.222;2023-12-07T10:00:35;18.20;;;16.40;;
6775;SDS011;3425;51.376;5.222;2023-12-07T10:03:04;16.48;;;15.48;;
6775;SDS011;3425;51.376;5.222;2023-12-07T10:05:54;16.13;;;15.23;;
6775;SDS011;3425;51.376;5.222;2023-12-07T10:08:26;15.48;;;14.57;;
6775;SDS011;3425;51.376;5.222;2023-12-07T10:13:31;15.85;;;14.95;;
6775;SDS011;3425;51.376;5.222;2023-12-07T10:16:08;15.20;;;14.30;;
6775;SDS011;3425;51.376;5.222;2023-12-07T10:18:36;16.95;;;15.85;;
6775;SDS011;3425;51.376;5.222;2023-12-07T10:21:08;15.93;;;14.68;;
6775;SDS011;3425;51.376;5.222;2023-12-07T10:23:36;14.90;;;14.10;;
6775;SDS011;3425;51.376;5.222;2023-12-07T10:26:05;16.20;;;15.10;;
6775;SDS011;3425;51.376;5.222;2023-12-07T10:28:35;15.05;;;14.25;;
6775;SDS011;3425;51.376;5.222;2023-12-07T10:31:03;16.05;;;15.05;;
6775;SDS011;3425;51.376;5.222;2023-12-07T10:33:31;15.35;;;14.55;;
6775;SDS011;3425;51.376;5.222;2023-12-07T10:35:58;15.20;;;14.30;;
6775;SDS011;3425;51.376;5.222;2023-12-07T10:38:26;14.70;;;13.90;;
6775;SDS011;3425;51.376;5.222;2023-12-07T10:41:01;14.85;;;13.98;;
6775;SDS011;3425;51.376;5.222;2023-12-07T10:43:31;15.63;;;14.60;;
6775;SDS011;3425;51.376;5.222;2023-12-07T10:46:02;13.68;;;12.88;;
6775;SDS011;3425;51.376;5.222;2023-12-07T10:48:30;12.90;;;12.10;;
6775;SDS011;3425;51.376;5.222;2023-12-07T10:51:00;12.25;;;11.65;;
6775;SDS011;3425;51.376;5.222;2023-12-07T10:53:27;12.38;;;11.68;;
6775;SDS011;3425;51.376;5.222;2023-12-07T10:55:57;13.32;;;12.35;;
6775;SDS011;3425;51.376;5.222;2023-12-07T10:58:26;11.25;;;10.70;;
6775;SDS011;3425;51.376;5.222;2023-12-07T11:00:55;10.35;;;9.85;;
6775;SDS011;3425;51.376;5.222;2023-12-07T11:03:22;10.68;;;10.15;;
6775;SDS011;3425;51.376;5.222;2023-12-07T11:05:51;9.80;;;9.30;;
6775;SDS011;3425;51.376;5.222;2023-12-07T11:08:21;9.23;;;8.73;;
6775;SDS011;3425;51.376;5.222;2023-12-07T11:13:29;10.48;;;9.93;;
6775;SDS011;3425;51.376;5.222;2023-12-07T11:15:57;10.68;;;10.18;;
6775;SDS011;3425;51.376;5.222;2023-12-07T11:18:28;9.90;;;9.40;;
6775;SDS011;3425;51.376;5.222;2023-12-07T11:20:55;10.45;;;9.85;;
6775;SDS011;3425;51.376;5.222;2023-12-07T11:23:23;9.40;;;8.98;;
6775;SDS011;3425;51.376;5.222;2023-12-07T11:25:52;10.55;;;9.93;;
6775;SDS011;3425;51.376;5.222;2023-12-07T11:28:42;10.60;;;10.00;;
6775;SDS011;3425;51.376;5.222;2023-12-07T11:31:09;9.85;;;9.40;;
6775;SDS011;3425;51.376;5.222;2023-12-07T11:33:37;10.30;;;9.70;;
6775;SDS011;3425;51.376;5.222;2023-12-07T11:36:06;9.80;;;9.30;;
6775;SDS011;3425;51.376;5.222;2023-12-07T11:38:35;10.75;;;9.95;;
6775;SDS011;3425;51.376;5.222;2023-12-07T11:41:03;9.98;;;9.48;;
6775;SDS011;3425;51.376;5.222;2023-12-07T11:46:07;9.20;;;8.80;;
6775;SDS011;3425;51.376;5.222;2023-12-07T11:48:35;8.95;;;8.55;;
6775;SDS011;3425;51.376;5.222;2023-12-07T11:51:03;8.57;;;8.18;;
6775;SDS011;3425;51.376;5.222;2023-12-07T11:53:32;9.20;;;8.73;;
6775;SDS011;3425;51.376;5.222;2023-12-07T11:56:01;10.10;;;9.60;;
6775;SDS011;3425;51.376;5.222;2023-12-07T11:58:29;9.77;;;9.27;;
6775;SDS011;3425;51.376;5.222;2023-12-07T12:01:00;9.20;;;8.80;;
6775;SDS011;3425;51.376;5.222;2023-12-07T12:03:28;10.05;;;9.55;;
6775;SDS011;3425;51.376;5.222;2023-12-07T12:05:55;10.13;;;9.63;;
6775;SDS011;3425;51.376;5.222;2023-12-07T12:08:23;11.02;;;10.32;;
6775;SDS011;3425;51.376;5.222;2023-12-07T12:10:51;8.73;;;8.30;;
6775;SDS011;3425;51.376;5.222;2023-12-07T12:13:19;8.80;;;8.40;;
6775;SDS011;3425;51.376;5.222;2023-12-07T12:15:47;7.78;;;7.47;;
6775;SDS011;3425;51.376;5.222;2023-12-07T12:18:14;8.30;;;7.90;;
6775;SDS011;3425;51.376;5.222;2023-12-07T12:20:44;9.27;;;8.77;;
6775;SDS011;3425;51.376;5.222;2023-12-07T12:23:13;9.00;;;8.50;;
6775;SDS011;3425;51.376;5.222;2023-12-07T12:25:40;7.63;;;7.13;;
6775;SDS011;3425;51.376;5.222;2023-12-07T12:28:08;6.57;;;6.28;;
6775;SDS011;3425;51.376;5.222;2023-12-07T12:30:35;8.00;;;7.40;;
6775;SDS011;3425;51.376;5.222;2023-12-07T12:33:03;5.70;;;5.40;;
6775;SDS011;3425;51.376;5.222;2023-12-07T12:35:30;7.43;;;7.10;;
6775;SDS011;3425;51.376;5.222;2023-12-07T12:37:58;7.63;;;7.22;;
6775;SDS011;3425;51.376;5.222;2023-12-07T12:40:27;22.98;;;8.15;;
6775;SDS011;3425;51.376;5.222;2023-12-07T12:42:58;7.28;;;6.97;;
6775;SDS011;3425;51.376;5.222;2023-12-07T12:45:26;6.60;;;6.30;;
6775;SDS011;3425;51.376;5.222;2023-12-07T12:47:54;8.57;;;7.80;;
6775;SDS011;3425;51.376;5.222;2023-12-07T12:50:35;8.18;;;7.70;;
6775;SDS011;3425;51.376;5.222;2023-12-07T12:53:07;7.40;;;7.10;;
6775;SDS011;3425;51.376;5.222;2023-12-07T12:55:38;8.65;;;8.25;;
6775;SDS011;3425;51.376;5.222;2023-12-07T12:58:06;8.68;;;7.95;;
6775;SDS011;3425;51.376;5.222;2023-12-07T13:00:34;8.55;;;8.15;;
6775;SDS011;3425;51.376;5.222;2023-12-07T13:03:03;8.00;;;7.60;;
6775;SDS011;3425;51.376;5.222;2023-12-07T13:05:30;7.53;;;7.22;;
6775;SDS011;3425;51.376;5.222;2023-12-07T13:07:58;8.25;;;7.75;;
6775;SDS011;3425;51.376;5.222;2023-12-07T13:10:39;7.18;;;6.88;;
6775;SDS011;3425;51.376;5.222;2023-12-07T13:13:07;7.80;;;7.45;;
6775;SDS011;3425;51.376;5.222;2023-12-07T13:15:35;7.88;;;7.50;;
6775;SDS011;3425;51.376;5.222;2023-12-07T13:18:02;8.20;;;7.80;;
6775;SDS011;3425;51.376;5.222;2023-12-07T13:20:33;9.30;;;8.80;;
6775;SDS011;3425;51.376;5.222;2023-12-07T13:23:18;7.10;;;6.80;;
6775;SDS011;3425;51.376;5.222;2023-12-07T13:25:47;10.18;;;9.50;;
6775;SDS011;3425;51.376;5.222;2023-12-07T13:28:15;7.22;;;6.93;;
6775;SDS011;3425;51.376;5.222;2023-12-07T13:30:42;8.35;;;7.95;;
6775;SDS011;3425;51.376;5.222;2023-12-07T13:33:09;9.00;;;8.60;;
6775;SDS011;3425;51.376;5.222;2023-12-07T13:35:52;7.57;;;7.28;;
6775;SDS011;3425;51.376;5.222;2023-12-07T13:38:21;7.72;;;7.40;;
6775;SDS011;3425;51.376;5.222;2023-12-07T13:40:49;8.55;;;8.15;;
6775;SDS011;3425;51.376;5.222;2023-12-07T13:43:17;10.23;;;9.73;;
6775;SDS011;3425;51.376;5.222;2023-12-07T13:45:44;8.75;;;8.35;;
6775;SDS011;3425;51.376;5.222;2023-12-07T13:48:12;6.75;;;6.45;;
6775;SDS011;3425;51.376;5.222;2023-12-07T13:50:40;8.73;;;8.32;;
6775;SDS011;3425;51.376;5.222;2023-12-07T13:53:07;8.00;;;7.68;;
6775;SDS011;3425;51.376;5.222;2023-12-07T13:55:39;8.65;;;8.25;;
6775;SDS011;3425;51.376;5.222;2023-12-07T13:58:06;7.60;;;7.30;;
6775;SDS011;3425;51.376;5.222;2023-12-07T14:00:36;7.63;;;7.32;;
6775;SDS011;3425;51.376;5.222;2023-12-07T14:03:04;7.93;;;7.55;;
6775;SDS011;3425;51.376;5.222;2023-12-07T14:05:31;7.20;;;6.53;;
6775;SDS011;3425;51.376;5.222;2023-12-07T14:08:00;7.60;;;7.20;;
6775;SDS011;3425;51.376;5.222;2023-12-07T14:10:30;8.77;;;8.38;;
6775;SDS011;3425;51.376;5.222;2023-12-07T14:12:58;9.52;;;9.05;;
6775;SDS011;3425;51.376;5.222;2023-12-07T14:15:25;8.90;;;8.50;;
6775;SDS011;3425;51.376;5.222;2023-12-07T14:18:07;8.43;;;8.00;;
6775;SDS011;3425;51.376;5.222;2023-12-07T14:20:35;9.65;;;9.15;;
6775;SDS011;3425;51.376;5.222;2023-12-07T14:23:22;8.30;;;7.90;;
6775;SDS011;3425;51.376;5.222;2023-12-07T14:25:50;8.38;;;7.82;;
6775;SDS011;3425;51.376;5.222;2023-12-07T14:28:18;8.68;;;8.27;;
6775;SDS011;3425;51.376;5.222;2023-12-07T14:30:45;10.30;;;9.60;;
6775;SDS011;3425;51.376;5.222;2023-12-07T14:33:12;9.73;;;9.32;;
6775;SDS011;3425;51.376;5.222;2023-12-07T14:35:40;10.52;;;10.02;;
6775;SDS011;3425;51.376;5.222;2023-12-07T14:38:07;10.45;;;9.85;;
6775;SDS011;3425;51.376;5.222;2023-12-07T14:40:35;11.30;;;10.70;;
6775;SDS011;3425;51.376;5.222;2023-12-07T14:43:02;11.80;;;10.98;;
6775;SDS011;3425;51.376;5.222;2023-12-07T14:45:30;13.02;;;12.20;;
6775;SDS011;3425;51.376;5.222;2023-12-07T14:47:57;12.35;;;11.52;;
6775;SDS011;3425;51.376;5.222;2023-12-07T14:50:24;11.77;;;11.18;;
6775;SDS011;3425;51.376;5.222;2023-12-07T14:52:52;11.55;;;10.95;;
6775;SDS011;3425;51.376;5.222;2023-12-07T14:55:19;10.93;;;10.40;;
6775;SDS011;3425;51.376;5.222;2023-12-07T14:57:46;9.75;;;9.15;;
6775;SDS011;3425;51.376;5.222;2023-12-07T15:00:15;8.70;;;8.30;;
6775;SDS011;3425;51.376;5.222;2023-12-07T15:02:42;9.77;;;9.27;;
6775;SDS011;3425;51.376;5.222;2023-12-07T15:05:10;10.40;;;9.90;;
6775;SDS011;3425;51.376;5.222;2023-12-07T15:07:37;9.43;;;9.02;;
6775;SDS011;3425;51.376;5.222;2023-12-07T15:10:08;10.80;;;10.30;;